الصفحة الرئيسية
METAR-TAF:

METAR-TAF

مطار :

كانزاس سيتي, ميزوري, الولايات المتحدة

دائرة عرض: 39-17-50N, خط طول: 094-43-50W, ارتفاع: 312 متر

مراقبة الطقس الحالي

تاريخ ووقت الإصدار 12ساعات و 35 دقيقة قبل الساعة 04:53UTC
ريح 10 عقدة من الشمال/الشمال الغربي تتزايد حتى 17 عقدة
درجة الحرارة 20°درجة مئوية
الرطوبة 94%
ضغط 1013 hPa
الرؤية: 14.5 كم
ملبد بالغيوم على ارتفاع 1200 قدم

METAR: KMCI 210453Z 33010G17KT 9SM OVC012 20/19 A2990 RMK AO2 SLP118 T02000189 $

زمن: 12:28 (17:28 UTC)

توقعات

تاريخ ووقت الإصدار 12ساعات و 8 دقيقة قبل الساعة 05:20UTC
التوقعات صالحة من21 الساعة 06 UTC إلى 22 الساعة 06 UTC
ريح 8 عقدة من الشمال الغربي
الرؤية: 10 كم
ملبد بالغيوم على ارتفاع 1200 قدم
من 21 الساعة 1200 UTC
ريح 9 عقدة من الشمال الغربي
الرؤية: 10 كم
غيوم مفككة على ارتفاع 3500 قدم
من 21 الساعة 1500 UTC
ريح 9 عقدة من الشمال/الشمال الغربي
الرؤية: 10 كم
غيوم متفرقة على ارتفاع 3500 قدم
من 21 الساعة 1800 UTC
ريح 5 عقدة من الشمال
الرؤية: 10 كم
غيوم متفرقة على ارتفاع 25000 قدم

TAF: KMCI 210520Z 2106/2206 32008KT P6SM OVC012 FM211200 32009KT P6SM BKN035 FM211500 33009KT P6SM SCT035 FM211800 35005KT P6SM SCT250

أرصاد الطقس والتوقعات من أكثر من 4000 مطار (تقارير الطقس للمطار METAR والتنبؤ بالطقس بالمطارTAF).

المحطات المتاحة هي النقط الصفراء والحمراء على الخريطة.

حرك المؤشر فوق النقطة لمعرفة اسم المحطة.

ثم انقر لمعرفة أرصاد وتوقعات الطقس.

لتغيير الخارطة: اضغط على الأزرار الخضراء مع رمز الصليب الأسود للتكبير. على الزر الأخضر مع شرطة للتصغير، أو على الأسهم الخضراء للخرائط المجاورة.


METAR-TAF: